Casco, Maine
Current Conditions -  °F | °C
As of 7:35 PM on Tuesday 25 Nov 2014 (Local Time) from KLEW Reporting Station
Clear Clear  
Wind Chill: 45°   Ceiling: Unl
Heat Index: 45°   Visibility: 10mi
Dew Point: 23°   Wind: 3mph
Humidity: 43%   Direction: 210°SSW
Pressure: 29.95"   Gusts: NA
Location:  44.01°N, 70.52°W
Report Text: KLEW 260035Z AUTO 21003KT 10SM CLR 07/M05 A2995 RMK AO1
Loading
Personal Weather Stations






























Interactive Weather Map New forecast layout! Learn more

10-Day Weather Forecast

Advertisements
Track Severe Weather on mobile